Tiempo atmosférico en la estación meteorológica de Madridejos, Toledo (690 m.)



Fecha
DESCASC
Temp. máxima en grados centígrados (hora)
DESCASC
Temp. mínima en grados centígrados (hora)
DESCASC
Temp. media en grados centígrados
DESCASC
Racha de viento máxima en m/sg (hora)
DESCASC
Velocidad máxima media en intervalos de 10 minutos(hora)
DESCASC
Precipitaciones diarias en mm
DESCASC
Precipitaciones de 00:00 a 06:00 en mm
DESCASC
Precipitaciones de 06:00 a 12:00 en mm
DESCASC
Precipitaciones de 12:00 a 18:00 en mm
DESCASC
Precipitaciones de 18:00 a 24:00 en mm
DESCASC
22-01-2020 9.8 (14:30) 1.8 (00:00) 5.8 13.06 (10:30) 8.33 (10:30) 0.2 0.2 0 0 0
21-01-2020 6.2 (15:00) 1.7 (23:00) 3.9 13.06 (10:20) 8.89 (16:30) 1.4 0 0.2 1 0.2
20-01-2020 5.1 (17:20) 0.5 (10:50) 2.8 13.89 (02:10) 8.06 (02:10) 0 0 0 0 0
19-01-2020 8.7 (00:30) 2.1 (00:00) 5.4 16.11 (21:40) 9.72 (21:50) 1.6 1 0.6 0 0
18-01-2020 10.3 (15:50) 4 (00:00) 7.2 13.33 (20:20) 7.22 (20:20) 3.4 0 3 0 0.4
17-01-2020 12.7 (14:30) 3.9 (00:00) 8.3 10.83 (01:50) 6.39 (14:00) 0 0 0 0 0
16-01-2020 15.4 (14:10) 4.4 (00:00) 9.9 9.72 (16:50) 5.28 (16:30) 0 0 0 0 0
15-01-2020 13 (15:00) -0.7 (-00:0) 6.2 10.28 (15:30) 6.67 (14:50) 0 0 0 0 0
14-01-2020 11.5 (16:00) -4 (-00:0) 3.8 8.33 (16:10) 3.61 (14:30) 0 0 0 0 0
13-01-2020 11.2 (14:30) -3.9 (-00:0) 3.6 9.72 (15:30) 5.28 (14:50) 0 0 0 0 0
12-01-2020 11.9 (15:20) -4.8 (08:20) 3.5 6.39 (15:00) 2.78 (18:10) 0 0 0 0 0
11-01-2020 10.1 (16:20) -3.3 (-00:0) 3.4 6.67 (13:30) 3.61 (00:30) 0 0 0 0 0
10-01-2020 10 (16:00) 0.1 (00:00) 5.1 13.61 (16:20) 7.5 (16:10) 0 0 0 0 0
09-01-2020 9.2 (16:40) -2.1 (-00:0) 3.5 6.39 (22:20) 3.33 (22:10) 0.2 0 0.2 0 0
08-01-2020 14.3 (15:30) -2.9 (-00:0) 5.7 7.78 (16:00) 3.06 (13:10) 0 0 0 0 0
07-01-2020 14.6 (16:30) -2.9 (-00:0) 5.9 5.83 (21:10) 2.5 (17:20) 0 0 0 0 0
06-01-2020 11.4 (16:20) -2.8 (-00:0) 4.3 5.83 (12:50) 2.78 (12:50) 0.2 0 0.2 0 0
05-01-2020 12 (15:40) -3.4 (-00:0) 4.3 6.11 (12:30) 2.78 (12:10) 0.2 0.2 0 0 0
04-01-2020 9.4 (17:00) -0.1 (00:00) 4.6 8.61 (17:00) 4.17 (14:00) 0 0 0 0 0
03-01-2020 7.1 (16:00) -1.9 (-00:0) 2.6 6.11 (14:10) 3.33 (23:59) 0 0 0 0 0
02-01-2020 10.6 (16:40) -4 (-00:0) 3.3 6.39 (14:30) 4.44 (15:30) 0.2 0 0.2 0 0
01-01-2020 6.5 (16:30) -2.4 (-00:0) 2 5.56 (16:30) 2.5 (14:30) 0.2 0 0.2 0 0
31-12-2019 5.3 (16:30) -2.5 (-00:0) 1.4 5 (15:50) 2.5 (11:30) 0.2 0 0 0 0.2
30-12-2019 6.7 (16:40) -2 (-00:0) 2.3 7.78 (11:10) 3.61 (14:30) 0.2 0 0.2 0 0
29-12-2019 11.2 (16:10) -1.8 (-00:0) 4.7 6.67 (14:30) 3.33 (14:30) 0.2 0 0.2 0 0
28-12-2019 13.9 (16:30) -0.7 (-00:0) 6.6 5 (22:20) 3.06 (15:30) 0.2 0.2 0 0 0
27-12-2019 12.6 (16:00) -0.4 (00:00) 6.1 5.83 (13:30) 2.78 (16:30) 0.2 0.2 0 0 0
26-12-2019 13.9 (15:20) 2.5 (00:00) 8.2 8.33 (03:30) 3.61 (03:30) 0 0 0 0 0
25-12-2019 16.3 (15:50) 0.7 (00:00) 8.5 5.83 (12:10) 2.22 (08:10) 0.2 0 0.2 0 0
24-12-2019 14.9 (16:30) 1.3 (09:00) 8.1 -- (--) -- (--) 0.2 0 0.2 0 0

Gráficas

Temp. máximas Temp. mínimas Temp. medias Precipitaciones Rachas de viento máximas Velocidades máximas media en intervalos de 10 minutos

Datos horarios

Fecha y hora oficial Temperatura (ºC) Velocidad del viento (km/h) Dirección del viento Racha (km/h) Dirección de racha Precipitación (mm) Presión (hPa) Tendencia (hPa) Humedad (%)
2020-01-22 23:00:00 3.6 6 Este 19 Este 0 936.3 0.6 86
2020-01-22 22:00:00 4.1 13 Este 19 Este 0 936 0.8 86
2020-01-22 21:00:00 4.3 14 Este 18 Este 0 935.8 0.9 84
2020-01-22 20:00:00 5.6 11 Este 15 Este 0 935.7 0.9 82
2020-01-22 19:00:00 6.8 9 Este 26 Este 0 935.2 0.1 79
2020-01-22 18:00:00 8.4 12 Este 33 Este 0 934.9 -0.5 74
2020-01-22 17:00:00 9.4 18 Sudeste 35 Este 0 934.8 -1.2 68
2020-01-22 16:00:00 9.5 22 Este 47 Este 0 935.1 -1.7 65
2020-01-22 15:00:00 9.1 24 Este 46 Este 0 935.4 -1.7 72
2020-01-22 14:00:00 9.3 23 Sudeste 45 Este 0 936 -1 70
2020-01-22 13:00:00 8.1 30 Este 45 Este 0 936.8 0.2 77
2020-01-22 12:00:00 8.1 26 Este 44 Este 0 937.1 0.9 78
2020-01-22 11:00:00 6.6 27 Este 47 Este 0 937 1.2 85
2020-01-22 10:00:00 5.1 22 Este 39 Este 0 936.6 1.4 88
2020-01-22 09:00:00 4.6 22 Este 37 Este 0 936.2 1.1 88
2020-01-22 08:00:00 4.9 25 Este 35 Este 0 935.8 0.4 89
2020-01-22 07:00:00 4.6 20 Este 39 Este 0 935.2 -0.4 88
2020-01-22 06:00:00 4.9 18 Este 43 Este 0.2 935.1 -0.6 89
2020-01-22 05:00:00 4.7 15 Este 21 Este 0 935.4 -0.4 91
2020-01-22 04:00:00 4.3 10 Nordeste 19 Este 0 935.6 0 90
2020-01-22 03:00:00 3.9 9 Este 17 Este 0 935.7 0 90
2020-01-22 02:00:00 2.7 0 Calma 16 Este 0 935.8 0.4 88
2020-01-22 01:00:00 3 9 Nordeste 18 Nordeste 0 935.6 0.3 90
2020-01-22 00:00:00 1.8 4 Oeste 17 Oeste 0 935.7 1.2 90
2020-01-21 23:00:00 1.7 5 Oeste 17 Oeste 0 935.4 1 89
2020-01-21 22:00:00 2.2 8 Norte 18 Nordeste 0 935.3 1.8 89
2020-01-21 21:00:00 2.4 8 Nordeste 14 Nordeste 0 934.5 0.8 89
2020-01-21 20:00:00 3.2 10 Nordeste 21 Nordeste 0 934.4 0.8 88
2020-01-21 19:00:00 3.4 15 Nordeste 32 Nordeste 0.2 933.5 0.4 85
2020-01-21 18:00:00 3.7 19 Nordeste 40 Nordeste 0.4 933.7 0.6 88
2020-01-21 17:00:00 5.1 23 Nordeste 45 Nordeste 0.2 933.6 -0.2 85
2020-01-21 16:00:00 5.7 21 Nordeste 35 Nordeste 0.2 933.1 -1.4 80
2020-01-21 15:00:00 6.2 27 Nordeste 39 Nordeste 0 933.1 -2.4 68
2020-01-21 14:00:00 5.7 14 Nordeste 34 Norte 0 933.8 -1.7 70
2020-01-21 13:00:00 5 18 Nordeste 39 Nordeste 0.2 934.5 -1.1 75
2020-01-21 12:00:00 4.9 17 Nordeste 41 Nordeste 0 935.5 -0.2 66
2020-01-21 11:00:00 3.9 14 Norte 47 Nordeste 0 935.5 -0.2 71
2020-01-21 10:00:00 3.7 16 Norte 41 Norte 0 935.6 -0.2 69
2020-01-21 09:00:00 3.1 21 Norte 37 Norte 0.2 935.7 -0.7 74
2020-01-21 08:00:00 3 20 Norte 32 Norte 0 935.7 -1.3 68
2020-01-21 07:00:00 2.7 17 Norte 39 Nordeste 0 935.8 -1.7 70
2020-01-21 06:00:00 2.9 17 Norte 38 Nordeste 0 936.4 -1.7 68
2020-01-21 05:00:00 3.1 14 Nordeste 34 Norte 0 937 -1.3 68
2020-01-21 04:00:00 3.3 15 Norte 31 Norte 0 937.5 -1.3 68
2020-01-21 03:00:00 3.3 17 Norte 31 Norte 0 938.1 -0.9 69
2020-01-21 02:00:00 3.2 21 Norte 35 Norte 0 938.3 -0.8 69
2020-01-21 01:00:00 2.9 17 Norte 32 Norte 0 938.8 -0.1 70
2020-01-21 00:00:00 2.7 16 Norte 26 Norte 0 939 0 70
2020-01-20 23:00:00 2.9 13 Norte 35 Nordeste 0 939.1 0.5 69
2020-01-20 22:00:00 3.3 18 Norte 33 Norte 0 938.9 0.8 65
2020-01-20 21:00:00 3.5 13 Norte 38 Nordeste 0 939 1.3 64
2020-01-20 20:00:00 3.8 27 Nordeste 43 Nordeste 0 938.6 1.1 61
2020-01-20 19:00:00 4.1 18 Nordeste 35 Norte 0 938.1 0.4 62
2020-01-20 18:00:00 4.7 14 Nordeste 40 Nordeste 0 937.7 -0.4 60
2020-01-20 17:00:00 4.8 18 Norte 39 Norte 0 937.5 -0.7 61
2020-01-20 16:00:00 4 14 Norte 43 Nordeste 0 937.7 -1.5 71
2020-01-20 15:00:00 4.5 25 Nordeste 46 Nordeste 0 938.1 -1.5 58
2020-01-20 14:00:00 4.2 18 Nordeste 45 Nordeste 0 938.2 -1.7 56
2020-01-20 13:00:00 2.8 22 Norte 43 Norte 0 939.2 -0.6 52
2020-01-20 12:00:00 2.3 25 Norte 44 Norte 0 939.6 0.3 49
2020-01-20 11:00:00 0.9 21 Norte 47 Nordeste 0 939.9 0.9 59
2020-01-20 10:00:00 1.1 16 Norte 41 Norte 0 939.8 0.7 56
2020-01-20 09:00:00 1.1 19 Norte 39 Norte 0 939.3 -0.3 53
2020-01-20 08:00:00 1 19 Norte 40 Norte 0 939 -0.7 55
2020-01-20 07:00:00 0.9 21 Norte 44 Norte 0 939.1 -1.1 57
2020-01-20 06:00:00 1 19 Norte 48 Norte 0 939.6 -0.9 57
2020-01-20 05:00:00 1.1 25 Norte 44 Norte 0 939.7 -1.3 56
2020-01-20 04:00:00 1.2 21 Norte 49 Norte 0 940.2 -1.1 57
2020-01-20 03:00:00 1.5 26 Norte 50 Norte 0 940.5 -1 56
2020-01-20 02:00:00 1.7 27 Norte 48 Norte 0 941 -0.5 55
2020-01-20 01:00:00 1.8 21 Norte 41 Norte 0 941.3 0 59
2020-01-20 00:00:00 2.1 19 Norte 43 Norte 0 941.5 0.8 58
2020-01-19 23:00:00 2.8 18 Norte 42 Nordeste 0 941.5 1.5 53
2020-01-19 22:00:00 3.1 30 Nordeste 58 Nordeste 0 941.3 2 52
2020-01-19 21:00:00 4.1 25 Nordeste 44 Nordeste 0 940.7 1.8 49
2020-01-19 20:00:00 4.8 30 Nordeste 44 Nordeste 0 940 1.3 48
2020-01-19 19:00:00 5.5 19 Nordeste 33 Nordeste 0 939.3 1.2 52
2020-01-19 18:00:00 5.2 12 Nordeste 46 Nordeste 0 938.9 1.3 60
2020-01-19 17:00:00 5.7 25 Nordeste 53 Nordeste 0 938.7 0.6 58
2020-01-19 16:00:00 6.4 21 Norte 54 Nordeste 0 938.1 -0.4 57
2020-01-19 15:00:00 6.8 21 Norte 50 Norte 0 937.6 -1.3 59
2020-01-19 14:00:00 6.6 24 Norte 53 Norte 0 938.1 -0.6 65
2020-01-19 13:00:00 6.3 33 Norte 57 Norte 0 938.5 0.5 66
2020-01-19 12:00:00 5.7 25 Norte 49 Norte 0.2 938.9 0.9 79
2020-01-19 11:00:00 4.9 19 Noroeste 31 Noroeste 0.2 938.7 1.1 83
2020-01-19 10:00:00 4.5 20 Noroeste 29 Noroeste 0.2 938 0.1 87
2020-01-19 09:00:00 4 18 Noroeste 26 Noroeste 0 938 0.1 88
2020-01-19 08:00:00 3 12 Noroeste 19 Noroeste 0 937.6 -0.4 87
2020-01-19 07:00:00 4.5 12 Noroeste 35 Noroeste 0 937.9 -0.6 85
2020-01-19 06:00:00 5 21 Noroeste 36 Noroeste 0 937.9 -0.8 82
2020-01-19 05:00:00 5.1 22 Noroeste 33 Noroeste 0 938 -0.8 85
2020-01-19 04:00:00 4.6 13 Noroeste 25 Oeste 0.2 938.5 -0.4 85
2020-01-19 03:00:00 5.4 15 Oeste 23 Oeste 0 938.7 -0.4 84
2020-01-19 02:00:00 5.4 12 Oeste 52 Noroeste 0.8 938.8 -1.1 86
2020-01-19 01:00:00 8.5 23 Oeste 35 Noroeste 0 938.9 -1 82
2020-01-19 00:00:00 8.1 12 Oeste 32 Noroeste 0.2 939.1 -1.4 80
2020-01-18 23:00:00 8.7 13 Noroeste 41 Noroeste 0.2 939.9 0.1 82
2020-01-18 22:00:00 10 15 Oeste 32 Oeste 0 939.9 -1.1 84
2020-01-18 21:00:00 9.6 11 Oeste 48 Sudoeste 0 940.5 -0.7 85
2020-01-18 20:00:00 9.5 23 Sudoeste 44 Sudoeste 0 939.8 -2.4 85
2020-01-18 19:00:00 10 22 Sudoeste 37 Oeste 0 941 -2 85
2020-01-18 18:00:00 9.8 18 Sudoeste 33 Sur 0 941.2 -2.8 87
2020-01-18 17:00:00 9.9 20 Sudoeste 39 Sudoeste 0 942.2 -3.2 83
2020-01-18 16:00:00 10.3 18 Sudoeste 36 Sudoeste 0 943 -3.4 81
2020-01-18 15:00:00 10 17 Sudoeste 38 Sudoeste 0 944 -3.9 80
2020-01-18 14:00:00 9.4 13 Sudoeste 33 Sudoeste 0 945.4 -2.9 82
2020-01-18 13:00:00 9.9 18 Sudoeste 36 Sur 0 946.4 -1.7 80
2020-01-18 12:00:00 8.8 13 Sur 29 Sur 0 947.9 -0.1 88
2020-01-18 11:00:00 6.9 8 Sur 24 Sur 0.2 948.3 -1.2 91
2020-01-18 10:00:00 5.7 8 Sudeste 24 Sudeste 0.4 948.1 -0.6 91
2020-01-18 09:00:00 5 10 Sur 23 Sur 1.4 948 -0.4 90
2020-01-18 08:00:00 4.9 8 Sudeste 19 Sur 1 949.5 1.7 89
2020-01-18 07:00:00 4.7 5 Sudoeste 18 Nordeste 0 948.7 -0.1 88
2020-01-18 06:00:00 4.5 4 Norte 18 Nordeste 0 948.4 -0.7 87
2020-01-18 05:00:00 4.9 6 Este 22 Sudoeste 0 947.8 -1.4 84
2020-01-18 04:00:00 5.1 11 Sudoeste 21 Sur 0 948.8 -0.9 85
2020-01-18 03:00:00 4.2 6 Oeste 19 Oeste 0 949.1 -0.7 85
2020-01-18 02:00:00 5.4 5 Sur 20 Sur 0 949.2 -1 83
2020-01-18 01:00:00 5.7 7 Sudeste 22 Sur 0 949.7 -0.8 83
2020-01-18 00:00:00 5.8 5 Sur 21 Oeste 0 949.8 -0.6 83
2020-01-17 23:00:00 5 9 Oeste 20 Oeste 0 950.2 0.1 83
2020-01-17 22:00:00 5.1 5 Sudoeste 19 Sudoeste 0 950.5 0.8 82
2020-01-17 21:00:00 5.3 2 Sudoeste 9 Oeste 0 950.4 1 79
2020-01-17 20:00:00 5.6 8 Sudoeste 12 Sudoeste 0 950.1 1.3 75
2020-01-17 19:00:00 8.4 6 Oeste 19 Sudoeste 0 949.7 0.9 71
2020-01-17 18:00:00 9.9 4 Noroeste 12 Norte 0 949.4 0.5 66
2020-01-17 17:00:00 11.6 9 Noroeste 20 Oeste 0 948.8 -0.3 60
2020-01-17 16:00:00 12.5 13 Oeste 36 Oeste 0 948.8 -0.8 56
2020-01-17 15:00:00 12.5 19 Oeste 39 Oeste 0 948.9 -1.3 55
2020-01-17 14:00:00 12.2 23 Oeste 35 Oeste 0 949.1 -0.9 57
2020-01-17 13:00:00 11.5 19 Oeste 32 Sudoeste 0 949.6 0.6 60
2020-01-17 12:00:00 10.9 16 Oeste 32 Oeste 0 950.2 1.7 64
2020-01-17 11:00:00 9.4 16 Oeste 30 Oeste 0 950 1.9 74
2020-01-17 10:00:00 6.3 9 Sudoeste 19 Sudoeste 0 949 1.7 84
2020-01-17 09:00:00 4.3 11 Sudoeste 20 Oeste 0 948.5 1.2 84
2020-01-17 08:00:00 5.2 13 Oeste 18 Sudoeste 0 948.1 1.8 81
2020-01-17 07:00:00 5.1 12 Sudoeste 22 Oeste 0 947.3 0.6 75
2020-01-17 06:00:00 5.9 5 Noroeste 33 Sudoeste 0 947.3 0.6 73
2020-01-17 05:00:00 6.3 10 Oeste 27 Nordeste 0 946.3 -0.2 72
2020-01-17 04:00:00 7.3 5 Oeste 30 Sudoeste 0 946.7 0.2 66
2020-01-17 03:00:00 7.9 5 Sudoeste 21 Sudoeste 0 946.7 0.1 59
2020-01-17 02:00:00 8.1 13 Sudoeste 39 Oeste 0 946.5 0.5 57
2020-01-17 01:00:00 7.2 2 Sudoeste 27 Sudoeste 0 946.5 0.7 61
2020-01-17 00:00:00 9 12 Sudoeste 32 Sur 0 946.6 1 53
2020-01-16 23:00:00 8.8 11 Sur 33 Sur 0 946 0.7 54
2020-01-16 22:00:00 7.4 9 Sudoeste 22 Sur 0 945.8 0.9 59
2020-01-16 21:00:00 9.6 7 Sur 23 Sur 0 945.6 0.9 48
2020-01-16 20:00:00 8.1 8 Sudoeste 21 Sudoeste 0 945.3 0.7 54
2020-01-16 19:00:00 9.3 4 Sudoeste 13 Sudeste 0 944.9 0.3 50
2020-01-16 18:00:00 12.1 9 Sur 33 Sudoeste 0 944.7 0.1 42
2020-01-16 17:00:00 14.3 12 Sudoeste 35 Sudoeste 0 944.6 -0.7 37
2020-01-16 16:00:00 15.1 16 Oeste 34 Sudoeste 0 944.6 -1.6 33
2020-01-16 15:00:00 15.2 15 Sudoeste 33 Sudoeste 0 944.6 -2 34
2020-01-16 14:00:00 15.3 14 Sudoeste 33 Sudoeste 0 945.3 -1.6 36
2020-01-16 13:00:00 14.6 6 Sur 25 Sur 0 946.2 -0.3 47
2020-01-16 12:00:00 13.3 7 Sur 24 Este 0 946.6 0.3 53
2020-01-16 11:00:00 11.5 7 Sur 23 Sudeste 0 946.9 0.8 66
2020-01-16 10:00:00 7.1 13 Sudeste 23 Sudeste 0 946.5 0.8 78
2020-01-16 09:00:00 4.4 7 Sudeste 22 Sur 0 946.3 0.7 82
2020-01-16 08:00:00 5.2 11 Sur 26 Sur 0 946.1 0.1 81
2020-01-16 07:00:00 5.6 7 Sudeste 23 Sur 0 945.7 -0.4 83
2020-01-16 06:00:00 5.4 8 Sudeste 18 Este 0 945.6 -0.4 84
2020-01-16 05:00:00 5.7 6 Sur 20 Sur 0 946 -0.1 85
2020-01-16 04:00:00 5.8 2 Este 19 Este 0 946.1 -0.3 83
2020-01-16 03:00:00 6.4 3 Sudeste 18 Este 0 946 -0.5 82
2020-01-16 02:00:00 6.7 3 Sudoeste 7 Sudoeste 0 946.1 -0.4 80
2020-01-16 01:00:00 7.8 5 Sur 23 Sur 0 946.4 0.2 77
2020-01-16 00:00:00 8.7 3 Sudoeste 8 Sudoeste 0 946.5 0.4 77
2020-01-15 23:00:00 9.1 7 Sudoeste 26 Sudoeste 0 946.5 0.8 76
2020-01-15 22:00:00 8.1 4 Este 18 Este 0 946.2 0.9 77
2020-01-15 21:00:00 8.3 3 Oeste 8 Sudeste 0 946.1 1.3 76
2020-01-15 20:00:00 9 4 Sur 7 Sur 0 945.7 1.3 74
2020-01-15 19:00:00 9.4 4 Sudoeste 22 Sudoeste 0 945.3 1.2 71
2020-01-15 18:00:00 10.8 10 Sudoeste 25 Oeste 0 944.8 1.1 67
2020-01-15 17:00:00 11.7 14 Oeste 32 Oeste 0 944.4 0.6 63
2020-01-15 16:00:00 12.2 20 Oeste 37 Sudoeste 0 944.1 -0.5 59
2020-01-15 15:00:00 13 21 Oeste 36 Oeste 0 943.7 -1.3 55
2020-01-15 14:00:00 11.6 20 Oeste 37 Sudoeste 0 943.8 -0.5 58
2020-01-15 13:00:00 11.3 17 Oeste 32 Sudoeste 0 944.6 1.1 57
2020-01-15 12:00:00 7.9 9 Este 17 Este 0 945 1.9 75
2020-01-15 11:00:00 6.4 5 Nordeste 22 Sur 0 944.3 1.5 81
2020-01-15 10:00:00 0.8 4 Sudeste 12 Este 0 943.5 1.8 89
2020-01-15 09:00:00 -0.7 8 Este 17 Este 0 943.1 1.3 88
2020-01-15 08:00:00 1.2 9 Este 20 Norte 0 942.8 0.7 87
2020-01-15 07:00:00 3.6 10 Sur 24 Sudoeste 0 941.7 -0.3 84
2020-01-15 06:00:00 4 13 Sudoeste 24 Sudoeste 0 941.8 -0.1 83
2020-01-15 05:00:00 3.5 9 Sudoeste 21 Sudoeste 0 942.1 0.6 83
2020-01-15 04:00:00 5.3 17 Sudoeste 26 Sudoeste 0 942 0 80
2020-01-15 03:00:00 5.3 12 Sudoeste 36 Sudoeste 0 941.9 -0.4 79
2020-01-15 02:00:00 5.5 16 Sudoeste 32 Sudoeste 0 941.5 -0.7 80
2020-01-15 01:00:00 3.5 5 Sudoeste 20 Sudoeste 0 942 0.4 82
2020-01-15 00:00:00 4.4 9 Sudoeste 19 Sudoeste 0 942.3 0.4 80
2020-01-14 23:00:00 3.5 12 Sudoeste 19 Sudoeste 0 942.2 0.7 83
2020-01-14 22:00:00 4.2 8 Sudoeste 19 Sudoeste 0 941.6 0.5 78
2020-01-14 21:00:00 3.6 10 Sudoeste 18 Sudoeste 0 941.9 0.9 78
2020-01-14 20:00:00 5.2 11 Sudoeste 22 Sur 0 941.5 0.9 73
2020-01-14 19:00:00 6.6 9 Sur 21 Sudoeste 0 941.1 0.6 67
2020-01-14 18:00:00 8.1 2 Nordeste 21 Este 0 941 0.4 60
2020-01-14 17:00:00 10 6 Oeste 30 Oeste 0 940.6 -0.6 49
2020-01-14 16:00:00 11.5 8 Oeste 28 Oeste 0 940.5 -1.5 49
2020-01-14 15:00:00 11 10 Sudoeste 28 Oeste 0 940.6 -2 54
2020-01-14 14:00:00 10 11 Sudoeste 25 Sur 0 941.2 -1.3 55
2020-01-14 13:00:00 9.4 11 Sudoeste 23 Sur 0 942 -0.3 62
2020-01-14 12:00:00 6.4 7 Sudeste 17 Sur 0 942.6 0.7 69
2020-01-14 11:00:00 2.6 4 Sudeste 8 Sudeste 0 942.5 0.6 81
2020-01-14 10:00:00 -0.7 5 Sudeste 10 Sudeste 0 942.3 0.7 89
2020-01-14 09:00:00 -3.2 4 Sur 17 Este 0 941.9 0.4 90
2020-01-14 08:00:00 -3.6 2 Este 8 Sudeste 0 941.9 0.4 88
2020-01-14 07:00:00 -3.4 4 Sudeste 18 Este 0 941.6 -0.2 88
2020-01-14 06:00:00 -3.2 4 Sudeste 18 Este 0 941.5 -0.6 87
2020-01-14 05:00:00 -2.5 4 Sudeste 9 Sudoeste 0 941.5 -0.8 86
2020-01-14 04:00:00 -1.8 6 Sudoeste 8 Sudoeste 0 941.8 -0.8 86
2020-01-14 03:00:00 -1.6 3 Oeste 10 Este 0 942.1 -0.9 84
2020-01-14 02:00:00 -0.4 6 Sudoeste 12 Sudoeste 0 942.3 -0.6 83
2020-01-14 01:00:00 0.1 5 Sudoeste 13 Sudoeste 0 942.6 -0.1 82
2020-01-14 00:00:00 -0.2 6 Sudoeste 10 Sudoeste 0 943 0.3 82
2020-01-13 23:00:00 0 7 Noroeste 13 Norte 0 942.9 -0.1 81
2020-01-13 22:00:00 1 5 Oeste 14 Sudoeste 0 942.7 -0.1 77
2020-01-13 21:00:00 3 9 Sudoeste 19 Sur 0 942.7 0.1 73
2020-01-13 20:00:00 3.2 5 Sudoeste 19 Sudoeste 0 943 0.1 74
2020-01-13 19:00:00 4.4 3 Noroeste 15 Este 0 942.8 -0.1 68
2020-01-13 18:00:00 7.3 5 Nordeste 26 Nordeste 0 942.6 -0.4 60
2020-01-13 17:00:00 9.3 6 Norte 31 Oeste 0 942.9 -0.4 55
2020-01-13 16:00:00 10.7 15 Oeste 35 Oeste 0 942.9 -1.5 45
2020-01-13 15:00:00 10.9 17 Oeste 33 Oeste 0 943 -2.2 44
2020-01-13 14:00:00 10.4 14 Sudoeste 24 Oeste 0 943.3 -2.2 52
2020-01-13 13:00:00 7.1 11 Sudeste 21 Este 0 944.4 -1 63
2020-01-13 12:00:00 4.7 6 Sudeste 15 Sur 0 945.2 0.1 72
2020-01-13 11:00:00 1.4 7 Sudeste 10 Sudeste 0 945.5 0.5 80
2020-01-13 10:00:00 -0.5 4 Sudeste 11 Sur 0 945.4 0.1 86
2020-01-13 09:00:00 -2.7 4 Sur 9 Sudeste 0 945.1 -0.1 88
2020-01-13 08:00:00 -3.1 5 Sudeste 8 Sudeste 0 945 -0.5 88
2020-01-13 07:00:00 -3.4 2 Sudeste 6 Sudeste 0 945.3 -0.7 88
2020-01-13 06:00:00 -3.6 4 Sudeste 7 Sudeste 0 945.2 -1 87
2020-01-13 05:00:00 -3.4 3 Sudeste 8 Sudeste 0 945.5 -1 87
2020-01-13 04:00:00 -3.3 2 Sur 11 Oeste 0 946 -1.2 87
2020-01-13 03:00:00 -3.6 5 Oeste 9 Norte 0 946.2 -1.6 86
2020-01-13 02:00:00 -3.3 4 Noroeste 10 Norte 0 946.5 -1.4 85
2020-01-13 01:00:00 -1.3 4 Sur 12 Sudoeste 0 947.2 -0.8 85
2020-01-13 00:00:00 -2.5 4 Sudoeste 9 Sudoeste 0 947.8 -0.2 83
2020-01-12 23:00:00 -1.4 5 Oeste 10 Este 0 947.9 0 82
2020-01-12 22:00:00 0.2 6 Sudoeste 9 Sudoeste 0 948 0.5 80
2020-01-12 21:00:00 0.8 4 Sudoeste 17 Nordeste 0 948 1 73
2020-01-12 20:00:00 4.1 6 Nordeste 21 Nordeste 0 947.9 1 67
2020-01-12 19:00:00 5.9 7 Nordeste 22 Nordeste 0 947.5 0.5 62
2020-01-12 18:00:00 7.5 10 Nordeste 20 Nordeste 0 947 -0.2 60
2020-01-12 17:00:00 10.4 4 Norte 13 Norte 0 946.9 -0.9 47
2020-01-12 16:00:00 11.1 5 Noroeste 23 Nordeste 0 947 -1.7 43
2020-01-12 15:00:00 11.2 6 Noroeste 23 Oeste 0 947.2 -2.4 40
2020-01-12 14:00:00 10.5 5 Este 21 Oeste 0 947.8 -2.1 48
2020-01-12 13:00:00 10 6 Sudeste 17 Este 0 948.7 -0.7 53
2020-01-12 12:00:00 6.8 5 Sudeste 14 Este 0 949.6 0.8 65
2020-01-12 11:00:00 4.5 0 Calma 11 Oeste 0 949.9 1.1 70
2020-01-12 10:00:00 0.5 2 Sur 11 Sudeste 0 949.4 0.6 88
2020-01-12 09:00:00 -4 3 Sur 11 Sudeste 0 948.8 0.3 89
2020-01-12 08:00:00 -4.4 5 Sudoeste 8 Sudoeste 0 948.8 0.2 87
2020-01-12 07:00:00 -4.4 5 Sudoeste 12 Este 0 948.8 -0.1 87
2020-01-12 06:00:00 -4.2 0 Calma 5 Sudoeste 0 948.5 -0.3 87
2020-01-12 05:00:00 -3.5 3 Sur 6 Sudoeste 0 948.6 -0.2 87
2020-01-12 04:00:00 -3.9 4 Sudoeste 6 Sudoeste 0 948.9 0 85
2020-01-12 03:00:00 -3.2 3 Sur 10 Este 0 948.8 -0.3 86
2020-01-12 02:00:00 -2.8 3 Oeste 9 Norte 0 948.8 -0.4 86
2020-01-12 01:00:00 -2.6 3 Noroeste 7 Noroeste 0 948.9 -0.3 85
2020-01-12 00:00:00 -2.1 2 Sudoeste 10 Oeste 0 949.1 0 84
2020-01-11 23:00:00 -2 5 Oeste 9 Oeste 0 949.2 0.3 83
2020-01-11 22:00:00 -0.5 6 Sudoeste 11 Sudoeste 0 949.2 0.6 81
2020-01-11 21:00:00 0.5 7 Sudoeste 10 Sudoeste 0 949.1 1 79
2020-01-11 20:00:00 3.3 2 Norte 6 Norte 0 948.9 0.8 71
2020-01-11 19:00:00 6.2 4 Nordeste 7 Nordeste 0 948.6 0.6 61
2020-01-11 18:00:00 8.3 2 Norte 9 Norte 0 948.1 -0.1 55
2020-01-11 17:00:00 9.5 5 Norte 21 Nordeste 0 948.1 -0.6 48
2020-01-11 16:00:00 9.7 5 Norte 22 Nordeste 0 948 -1.6 49
2020-01-11 15:00:00 9.1 6 Norte 23 Norte 0 948.2 -2.2 51
2020-01-11 14:00:00 7.9 7 Noroeste 24 Oeste 0 948.7 -1.7 59
2020-01-11 13:00:00 6.5 8 Noroeste 22 Oeste 0 949.6 -0.2 65
2020-01-11 12:00:00 4.5 8 Noroeste 19 Norte 0 950.4 1.1 71
2020-01-11 11:00:00 2.8 8 Noroeste 15 Oeste 0 950.4 1.4 79
2020-01-11 10:00:00 -0.6 4 Oeste 10 Noroeste 0 949.8 1.2 88
2020-01-11 09:00:00 -3.2 7 Noroeste 12 Noroeste 0 949.3 0.8 88
2020-01-11 08:00:00 -3.3 11 Noroeste 14 Noroeste 0 949 0.7 87
2020-01-11 07:00:00 -3.2 10 Oeste 14 Oeste 0 948.6 0 86
2020-01-11 06:00:00 -2.4 10 Oeste 13 Oeste 0 948.5 0.1 84
2020-01-11 05:00:00 -2.3 5 Oeste 9 Oeste 0 948.3 0.3 85
2020-01-11 04:00:00 -2 9 Oeste 12 Oeste 0 948.6 0.4 84
2020-01-11 03:00:00 -1.3 9 Noroeste 16 Noroeste 0 948.4 0 81
2020-01-11 02:00:00 0 11 Noroeste 16 Noroeste 0 948 0 78
2020-01-11 01:00:00 0.1 7 Noroeste 18 Noroeste 0 948.2 0.3 79
2020-01-11 00:00:00 0.1 10 Noroeste 15 Norte 0 948.4 1 77
2020-01-10 23:00:00 1.8 11 Norte 20 Norte 0 948 1.1 72
2020-01-10 22:00:00 1.7 12 Norte 20 Norte 0 947.9 1.4 73
2020-01-10 21:00:00 3.6 9 Noroeste 22 Norte 0 947.4 1.4 66
2020-01-10 20:00:00 6.2 10 Nordeste 24 Norte 0 946.9 1.4 58
2020-01-10 19:00:00 6.1 9 Norte 23 Norte 0 946.5 1.6 59
2020-01-10 18:00:00 8.1 7 Nordeste 35 Norte 0 946 0.9 51
2020-01-10 17:00:00 9.4 16 Norte 49 Nordeste 0 945.5 -0.2 45
2020-01-10 16:00:00 9.8 19 Nordeste 39 Nordeste 0 944.9 -1.3 42
2020-01-10 15:00:00 9.6 21 Norte 37 Norte 0 945.1 -1.6 48
2020-01-10 14:00:00 8.8 22 Norte 40 Norte 0 945.7 -1 53
2020-01-10 13:00:00 7.9 15 Norte 32 Norte 0 946.2 0 63
2020-01-10 12:00:00 7.2 16 Norte 29 Norte 0 946.7 1.2 64
2020-01-10 11:00:00 6.1 15 Norte 27 Norte 0 946.7 1.7 69
2020-01-10 10:00:00 4.1 8 Noroeste 17 Noroeste 0 946.2 1.9 77
2020-01-10 09:00:00 3.3 10 Noroeste 21 Noroeste 0 945.5 1.6 77
2020-01-10 08:00:00 4 13 Noroeste 22 Noroeste 0 945 1.1 81
2020-01-10 07:00:00 4.1 13 Noroeste 21 Oeste 0 944.3 0.4 82
2020-01-10 06:00:00 3.3 15 Oeste 21 Oeste 0 943.9 -0.2 84
2020-01-10 05:00:00 4.7 12 Noroeste 20 Noroeste 0 943.9 -0.1 83
2020-01-10 04:00:00 2.8 12 Oeste 15 Oeste 0 943.9 0.2 91
2020-01-10 03:00:00 1.6 9 Noroeste 12 Noroeste 0 944.1 0.5 89
2020-01-10 02:00:00 1.6 6 Noroeste 22 Norte 0 944 -0.3 88
2020-01-10 01:00:00 3.4 8 Sudoeste 14 Sudoeste 0 943.7 -1.1 88
2020-01-10 00:00:00 2.6 11 Sudoeste 18 Sudoeste 0 943.6 -1.2 87
2020-01-09 23:00:00 2.7 8 Oeste 23 Oeste 0 944.3 0.4 87
2020-01-09 22:00:00 3.3 12 Oeste 16 Sudoeste 0 944.8 1.1 88
2020-01-09 21:00:00 2.1 9 Noroeste 19 Oeste 0 944.8 0.8 87
2020-01-09 20:00:00 4.5 2 Sur 20 Sur 0 943.9 0.2 82
2020-01-09 19:00:00 6.6 7 Sudeste 19 Este 0 943.7 -0.2 77
2020-01-09 18:00:00 8.2 3 Sur 20 Este 0 944 -0.5 72
2020-01-09 17:00:00 9.1 7 Sudeste 22 Este 0 943.7 -1.1 70
2020-01-09 16:00:00 8.6 6 Este 18 Norte 0 943.9 -1.9 76
2020-01-09 15:00:00 6.4 5 Este 17 Este 0 944.5 -2.2 84
2020-01-09 14:00:00 4.6 9 Sudeste 19 Sudeste 0 944.8 -1.7 91
2020-01-09 13:00:00 2.6 5 Sudeste 12 Este 0 945.8 0 93
2020-01-09 12:00:00 1.6 3 Sur 13 Sudeste 0 946.7 1 93
2020-01-09 11:00:00 0.3 4 Sudeste 9 Sudeste 0.2 946.5 0.9 93
2020-01-09 10:00:00 -0.3 5 Sudeste 10 Este 0 945.8 0.4 93
2020-01-09 09:00:00 0 2 Sudoeste 8 Oeste 0 945.7 0.2 92
2020-01-09 08:00:00 -1.5 4 Oeste 8 Oeste 0 945.6 -0.3 92
2020-01-09 07:00:00 -1.5 4 Oeste 9 Oeste 0 945.4 -0.9 91
2020-01-09 06:00:00 -2 5 Oeste 12 Sudoeste 0 945.5 -1 90
2020-01-09 05:00:00 -1 4 Sudoeste 14 Oeste 0 945.9 -0.7 90
2020-01-09 04:00:00 -0.2 5 Sudeste 17 Este 0 946.3 -0.4 89
2020-01-09 03:00:00 0.1 3 Norte 16 Este 0 946.5 -0.6 88
2020-01-09 02:00:00 0.2 7 Oeste 19 Oeste 0 946.6 -0.6 87
2020-01-09 01:00:00 1.8 4 Oeste 15 Este 0 946.7 -0.6 82
2020-01-09 00:00:00 4.6 6 Sudeste 19 Este 0 947.1 0 84
2020-01-08 23:00:00 4.5 10 Este 19 Este 0 947.2 0.2 82
2020-01-08 22:00:00 6.1 10 Este 22 Este 0 947.3 0.6 73
2020-01-08 21:00:00 6.8 7 Sudeste 22 Este 0 947.1 0.6 66
2020-01-08 20:00:00 7.4 4 Este 18 Este 0 947 0.6 64
2020-01-08 19:00:00 9.2 0 Calma 20 Este 0 946.7 0.4 60
2020-01-08 18:00:00 11.2 6 Este 14 Sur 0 946.5 0.1 55
2020-01-08 17:00:00 12.9 7 Sudeste 27 Este 0 946.4 -0.4 47
2020-01-08 16:00:00 13.9 10 Sudeste 28 Este 0 946.3 -1.2 38
2020-01-08 15:00:00 13.4 6 Sudeste 13 Este 0 946.4 -1.7 45
2020-01-08 14:00:00 13.2 2 Sudeste 22 Este 0 946.8 -1.5 48
2020-01-08 13:00:00 10.5 9 Este 22 Norte 0 947.5 -0.8 60
2020-01-08 12:00:00 8.6 6 Norte 15 Oeste 0 948.1 0.4 61
2020-01-08 11:00:00 5.8 5 Noroeste 15 Nordeste 0 948.3 0.9 77
2020-01-08 10:00:00 0.7 0 Calma 10 Norte 0 948.3 1 86
2020-01-08 09:00:00 -1.9 3 Noroeste 10 Nordeste 0 947.7 0.1 87
2020-01-08 08:00:00 -1.8 3 Nordeste 14 Nordeste 0 947.4 -0.4 88
2020-01-08 07:00:00 -2.3 5 Sudoeste 8 Oeste 0 947.3 -0.7 88
2020-01-08 06:00:00 -2.1 5 Sudoeste 12 Oeste 0 947.6 -0.6 87
2020-01-08 05:00:00 -2.8 5 Oeste 8 Oeste 0 947.8 -0.3 87
2020-01-08 04:00:00 -2 5 Oeste 16 Oeste 0 948 -0.2 87
2020-01-08 03:00:00 -1.1 3 Sudoeste 14 Sudoeste 0 948.2 -0.3 86
2020-01-08 02:00:00 -0.7 4 Sur 15 Sudoeste 0 948.1 -0.5 85
2020-01-08 01:00:00 -0.1 5 Sudoeste 8 Sur 0 948.2 -0.4 86
2020-01-08 00:00:00 0.3 4 Noroeste 14 Oeste 0 948.5 0 84
2020-01-07 23:00:00 0.8 3 Oeste 14 Oeste 0 948.6 0 83
2020-01-07 22:00:00 2.1 5 Sudoeste 21 Oeste 0 948.6 0.2 82
2020-01-07 21:00:00 2.2 8 Noroeste 21 Oeste 0 948.5 0.3 82
2020-01-07 20:00:00 5.4 5 Noroeste 9 Noroeste 0 948.6 0.5 77
2020-01-07 19:00:00 8.4 5 Norte 12 Oeste 0 948.4 0.2 70
2020-01-07 18:00:00 12.1 0 Calma 17 Norte 0 948.2 -0.2 59
2020-01-07 17:00:00 13.7 7 Noroeste 15 Norte 0 948.1 -0.8 46
2020-01-07 16:00:00 14.1 9 Noroeste 17 Noroeste 0 948.2 -1.4 38
2020-01-07 15:00:00 13.4 7 Noroeste 18 Norte 0 948.4 -1.9 41
2020-01-07 14:00:00 12.3 6 Noroeste 15 Noroeste 0 948.9 -1.6 47
2020-01-07 13:00:00 10.6 4 Noroeste 11 Norte 0 949.6 -0.4 54
2020-01-07 12:00:00 8.6 3 Noroeste 17 Oeste 0 950.3 0.7 66
2020-01-07 11:00:00 4.9 6 Noroeste 17 Oeste 0 950.5 1.3 85
2020-01-07 10:00:00 0 3 Oeste 10 Norte 0 950 0.8 88
2020-01-07 09:00:00 -2.4 0 Calma 13 Oeste 0 949.6 0.4 88
2020-01-07 08:00:00 -1.7 9 Oeste 14 Oeste 0 949.2 0.4 89
2020-01-07 07:00:00 -2.5 6 Oeste 12 Oeste 0 949.2 0 88
2020-01-07 06:00:00 -2.5 8 Noroeste 11 Oeste 0 949.2 -0.1 88
2020-01-07 05:00:00 -1.9 6 Sudoeste 11 Oeste 0 948.8 -0.3 89
2020-01-07 04:00:00 -2.1 7 Oeste 10 Oeste 0 949.2 -0.1 88
2020-01-07 03:00:00 -1.2 6 Oeste 11 Sudoeste 0 949.3 0.3 89
2020-01-07 02:00:00 -1.3 6 Sudoeste 10 Oeste 0 949.1 0.4 88
2020-01-07 01:00:00 -1.1 6 Sudoeste 17 Oeste 0 949.3 0.5 86
2020-01-07 00:00:00 -0.4 7 Noroeste 12 Noroeste 0 949 1.1 86
2020-01-06 23:00:00 0.3 8 Sudoeste 12 Oeste 0 948.7 1.2 86
2020-01-06 22:00:00 0.6 9 Noroeste 12 Noroeste 0 948.8 1.7 85
2020-01-06 21:00:00 1 8 Oeste 9 Oeste 0 947.9 1.2 83
2020-01-06 20:00:00 3.6 6 Sudoeste 11 Sudoeste 0 947.5 0.7 75
2020-01-06 19:00:00 6.8 4 Sudoeste 7 Sur 0 947.1 0.7 67
2020-01-06 18:00:00 9.5 4 Sudoeste 6 Sudeste 0 946.7 0.2 62
2020-01-06 17:00:00 10.7 0 Calma 21 Nordeste 0 946.8 -0.1 57
2020-01-06 16:00:00 11.3 4 Este 21 Nordeste 0 946.4 -1.2 55
2020-01-06 15:00:00 10.3 5 Norte 20 Nordeste 0 946.5 -1.5 55
2020-01-06 14:00:00 8.6 6 Este 19 Nordeste 0 946.9 -1.2 61
2020-01-06 13:00:00 7.8 5 Nordeste 21 Norte 0 947.6 -0.2 69
2020-01-06 12:00:00 5.3 7 Nordeste 17 Nordeste 0 948 0.7 74
2020-01-06 11:00:00 4.7 0 Calma 14 Oeste 0.2 948.1 1.3 86
2020-01-06 10:00:00 -0.2 3 Noroeste 10 Norte 0 947.8 1.2 90